sensor_id;sensor_type;location;lat;lon;timestamp;temperature;humidity
57108;DHT22;42987;52.916;6.542;2023-02-16T00:01:56;5.70;99.90
57108;DHT22;42987;52.916;6.542;2023-02-16T00:04:25;5.70;99.90
57108;DHT22;42987;52.916;6.542;2023-02-16T00:06:52;5.70;99.90
57108;DHT22;42987;52.916;6.542;2023-02-16T00:09:19;5.60;99.90
57108;DHT22;42987;52.916;6.542;2023-02-16T00:11:46;5.60;99.90
57108;DHT22;42987;52.916;6.542;2023-02-16T00:14:51;5.60;99.90
57108;DHT22;42987;52.916;6.542;2023-02-16T00:17:16;5.60;99.90
57108;DHT22;42987;52.916;6.542;2023-02-16T00:19:42;5.60;99.90
57108;DHT22;42987;52.916;6.542;2023-02-16T00:22:08;5.60;99.90
57108;DHT22;42987;52.916;6.542;2023-02-16T00:24:35;5.60;99.90
57108;DHT22;42987;52.916;6.542;2023-02-16T00:27:02;5.60;99.90
57108;DHT22;42987;52.916;6.542;2023-02-16T00:29:33;5.60;99.90
57108;DHT22;42987;52.916;6.542;2023-02-16T00:32:01;5.60;99.90
57108;DHT22;42987;52.916;6.542;2023-02-16T00:34:36;5.60;99.90
57108;DHT22;42987;52.916;6.542;2023-02-16T00:37:13;5.60;99.90
57108;DHT22;42987;52.916;6.542;2023-02-16T00:39:43;5.50;99.90
57108;DHT22;42987;52.916;6.542;2023-02-16T00:42:29;5.50;99.90
57108;DHT22;42987;52.916;6.542;2023-02-16T00:44:57;5.50;99.90
57108;DHT22;42987;52.916;6.542;2023-02-16T00:47:36;5.50;99.90
57108;DHT22;42987;52.916;6.542;2023-02-16T00:52:42;5.40;99.90
57108;DHT22;42987;52.916;6.542;2023-02-16T00:55:19;5.40;99.90
57108;DHT22;42987;52.916;6.542;2023-02-16T01:00:37;5.40;99.90
57108;DHT22;42987;52.916;6.542;2023-02-16T01:03:10;5.40;99.90
57108;DHT22;42987;52.916;6.542;2023-02-16T01:05:37;5.40;99.90
57108;DHT22;42987;52.916;6.542;2023-02-16T01:08:13;5.40;99.90
57108;DHT22;42987;52.916;6.542;2023-02-16T01:11:00;5.40;99.90
57108;DHT22;42987;52.916;6.542;2023-02-16T01:13:47;5.40;99.90
57108;DHT22;42987;52.916;6.542;2023-02-16T01:16:24;5.40;99.90
57108;DHT22;42987;52.916;6.542;2023-02-16T01:18:51;5.30;99.90
57108;DHT22;42987;52.916;6.542;2023-02-16T01:21:20;5.40;99.90
57108;DHT22;42987;52.916;6.542;2023-02-16T01:23:46;5.40;99.90
57108;DHT22;42987;52.916;6.542;2023-02-16T01:26:15;5.40;99.90
57108;DHT22;42987;52.916;6.542;2023-02-16T01:28:42;5.40;99.90
57108;DHT22;42987;52.916;6.542;2023-02-16T01:31:12;5.30;99.90
57108;DHT22;42987;52.916;6.542;2023-02-16T01:33:41;5.30;99.90
57108;DHT22;42987;52.916;6.542;2023-02-16T01:38:44;5.30;99.90
57108;DHT22;42987;52.916;6.542;2023-02-16T01:44:26;5.30;99.90
57108;DHT22;42987;52.916;6.542;2023-02-16T01:49:27;5.30;99.90
57108;DHT22;42987;52.916;6.542;2023-02-16T01:58:45;5.20;99.90
57108;DHT22;42987;52.916;6.542;2023-02-16T02:03:17;5.30;99.90
57108;DHT22;42987;52.916;6.542;2023-02-16T02:06:02;5.10;99.90
57108;DHT22;42987;52.916;6.542;2023-02-16T02:08:49;5.20;99.90
57108;DHT22;42987;52.916;6.542;2023-02-16T02:11:31;5.20;99.90
57108;DHT22;42987;52.916;6.542;2023-02-16T02:13:59;5.20;99.90
57108;DHT22;42987;52.916;6.542;2023-02-16T02:16:27;5.20;99.90
57108;DHT22;42987;52.916;6.542;2023-02-16T02:18:53;5.20;99.90
57108;DHT22;42987;52.916;6.542;2023-02-16T02:29:55;5.20;99.90
57108;DHT22;42987;52.916;6.542;2023-02-16T02:32:38;5.20;99.90
57108;DHT22;42987;52.916;6.542;2023-02-16T02:45:38;5.20;99.90
57108;DHT22;42987;52.916;6.542;2023-02-16T02:48:06;5.20;99.90
57108;DHT22;42987;52.916;6.542;2023-02-16T02:53:12;5.10;99.90
57108;DHT22;42987;52.916;6.542;2023-02-16T02:55:43;5.10;99.90
57108;DHT22;42987;52.916;6.542;2023-02-16T02:58:31;5.10;99.90
57108;DHT22;42987;52.916;6.542;2023-02-16T03:01:18;5.10;99.90
57108;DHT22;42987;52.916;6.542;2023-02-16T03:03:50;5.10;99.90
57108;DHT22;42987;52.916;6.542;2023-02-16T03:06:28;5.10;99.90
57108;DHT22;42987;52.916;6.542;2023-02-16T03:09:10;5.10;99.90
57108;DHT22;42987;52.916;6.542;2023-02-16T03:11:37;5.10;99.90
57108;DHT22;42987;52.916;6.542;2023-02-16T03:17:00;5.10;99.90
57108;DHT22;42987;52.916;6.542;2023-02-16T03:19:47;5.20;99.90
57108;DHT22;42987;52.916;6.542;2023-02-16T03:22:32;5.10;99.90
57108;DHT22;42987;52.916;6.542;2023-02-16T03:25:17;5.20;99.90
57108;DHT22;42987;52.916;6.542;2023-02-16T03:28:04;5.20;99.90
57108;DHT22;42987;52.916;6.542;2023-02-16T03:30:57;5.20;99.90
57108;DHT22;42987;52.916;6.542;2023-02-16T03:33:23;5.20;99.90
57108;DHT22;42987;52.916;6.542;2023-02-16T03:35:50;5.20;99.90
57108;DHT22;42987;52.916;6.542;2023-02-16T03:38:17;5.20;99.90
57108;DHT22;42987;52.916;6.542;2023-02-16T03:40:43;5.30;99.90
57108;DHT22;42987;52.916;6.542;2023-02-16T03:43:09;5.30;99.90
57108;DHT22;42987;52.916;6.542;2023-02-16T03:45:38;5.30;99.90
57108;DHT22;42987;52.916;6.542;2023-02-16T03:48:05;5.40;99.90
57108;DHT22;42987;52.916;6.542;2023-02-16T03:50:31;5.40;99.90
57108;DHT22;42987;52.916;6.542;2023-02-16T03:52:57;5.40;99.90
57108;DHT22;42987;52.916;6.542;2023-02-16T03:55:42;5.50;99.90
57108;DHT22;42987;52.916;6.542;2023-02-16T03:58:10;5.50;99.90
57108;DHT22;42987;52.916;6.542;2023-02-16T04:00:40;5.50;99.90
57108;DHT22;42987;52.916;6.542;2023-02-16T04:03:06;5.60;99.90
57108;DHT22;42987;52.916;6.542;2023-02-16T04:05:33;5.50;99.90
57108;DHT22;42987;52.916;6.542;2023-02-16T04:07:59;5.60;99.90
57108;DHT22;42987;52.916;6.542;2023-02-16T04:10:25;5.60;99.90
57108;DHT22;42987;52.916;6.542;2023-02-16T04:12:51;5.60;99.90
57108;DHT22;42987;52.916;6.542;2023-02-16T04:15:20;5.70;99.90
57108;DHT22;42987;52.916;6.542;2023-02-16T04:17:46;5.70;99.90
57108;DHT22;42987;52.916;6.542;2023-02-16T04:20:18;5.60;99.90
57108;DHT22;42987;52.916;6.542;2023-02-16T04:22:44;5.70;99.90
57108;DHT22;42987;52.916;6.542;2023-02-16T04:25:10;5.70;99.90
57108;DHT22;42987;52.916;6.542;2023-02-16T04:27:37;5.70;99.90
57108;DHT22;42987;52.916;6.542;2023-02-16T04:30:05;5.70;99.90
57108;DHT22;42987;52.916;6.542;2023-02-16T04:32:31;5.70;99.90
57108;DHT22;42987;52.916;6.542;2023-02-16T04:34:57;5.70;99.90
57108;DHT22;42987;52.916;6.542;2023-02-16T04:37:23;5.70;99.90
57108;DHT22;42987;52.916;6.542;2023-02-16T04:39:51;5.70;99.90
57108;DHT22;42987;52.916;6.542;2023-02-16T04:42:17;5.70;99.90
57108;DHT22;42987;52.916;6.542;2023-02-16T04:44:43;5.80;99.90
57108;DHT22;42987;52.916;6.542;2023-02-16T04:47:09;5.70;99.90
57108;DHT22;42987;52.916;6.542;2023-02-16T04:49:35;5.70;99.90
57108;DHT22;42987;52.916;6.542;2023-02-16T04:52:01;5.70;99.90
57108;DHT22;42987;52.916;6.542;2023-02-16T04:54:32;5.70;99.90
57108;DHT22;42987;52.916;6.542;2023-02-16T04:56:58;5.70;99.90
57108;DHT22;42987;52.916;6.542;2023-02-16T04:59:27;5.80;99.90
57108;DHT22;42987;52.916;6.542;2023-02-16T05:01:56;5.80;99.90
57108;DHT22;42987;52.916;6.542;2023-02-16T05:04:23;5.80;99.90
57108;DHT22;42987;52.916;6.542;2023-02-16T05:06:49;5.80;99.90
57108;DHT22;42987;52.916;6.542;2023-02-16T05:09:15;5.80;99.90
57108;DHT22;42987;52.916;6.542;2023-02-16T05:11:41;5.90;99.90
57108;DHT22;42987;52.916;6.542;2023-02-16T05:14:28;5.90;99.90
57108;DHT22;42987;52.916;6.542;2023-02-16T05:17:25;5.90;99.90
57108;DHT22;42987;52.916;6.542;2023-02-16T05:19:56;5.90;99.90
57108;DHT22;42987;52.916;6.542;2023-02-16T05:22:22;5.90;99.90
57108;DHT22;42987;52.916;6.542;2023-02-16T05:24:49;5.90;99.90
57108;DHT22;42987;52.916;6.542;2023-02-16T05:27:20;5.90;99.90
57108;DHT22;42987;52.916;6.542;2023-02-16T05:29:47;5.90;99.90
57108;DHT22;42987;52.916;6.542;2023-02-16T05:32:13;5.90;99.90
57108;DHT22;42987;52.916;6.542;2023-02-16T05:34:39;5.90;99.90
57108;DHT22;42987;52.916;6.542;2023-02-16T05:37:05;5.90;99.90
57108;DHT22;42987;52.916;6.542;2023-02-16T05:39:31;5.90;99.90
57108;DHT22;42987;52.916;6.542;2023-02-16T05:41:57;5.90;99.90
57108;DHT22;42987;52.916;6.542;2023-02-16T05:44:23;5.90;99.90
57108;DHT22;42987;52.916;6.542;2023-02-16T05:46:48;5.90;99.90
57108;DHT22;42987;52.916;6.542;2023-02-16T05:49:15;5.90;99.90
57108;DHT22;42987;52.916;6.542;2023-02-16T05:51:41;5.90;99.90
57108;DHT22;42987;52.916;6.542;2023-02-16T05:54:07;5.90;99.90
57108;DHT22;42987;52.916;6.542;2023-02-16T05:56:35;5.90;99.90
57108;DHT22;42987;52.916;6.542;2023-02-16T05:59:04;5.90;99.90
57108;DHT22;42987;52.916;6.542;2023-02-16T06:01:30;5.90;99.90
57108;DHT22;42987;52.916;6.542;2023-02-16T06:03:56;5.90;99.90
57108;DHT22;42987;52.916;6.542;2023-02-16T06:06:21;5.90;99.90
57108;DHT22;42987;52.916;6.542;2023-02-16T06:08:47;5.90;99.90
57108;DHT22;42987;52.916;6.542;2023-02-16T06:11:13;5.90;99.90
57108;DHT22;42987;52.916;6.542;2023-02-16T06:13:59;6.00;99.90
57108;DHT22;42987;52.916;6.542;2023-02-16T06:16:29;5.90;99.90
57108;DHT22;42987;52.916;6.542;2023-02-16T06:18:56;5.90;99.90
57108;DHT22;42987;52.916;6.542;2023-02-16T06:21:22;6.00;99.90
57108;DHT22;42987;52.916;6.542;2023-02-16T06:23:48;5.90;99.90
57108;DHT22;42987;52.916;6.542;2023-02-16T06:26:15;6.00;99.90
57108;DHT22;42987;52.916;6.542;2023-02-16T06:28:41;6.00;99.90
57108;DHT22;42987;52.916;6.542;2023-02-16T06:31:07;6.00;99.90
57108;DHT22;42987;52.916;6.542;2023-02-16T06:33:33;6.00;99.90
57108;DHT22;42987;52.916;6.542;2023-02-16T06:35:58;6.00;99.90
57108;DHT22;42987;52.916;6.542;2023-02-16T06:38:24;6.00;99.90
57108;DHT22;42987;52.916;6.542;2023-02-16T06:40:51;6.00;99.90
57108;DHT22;42987;52.916;6.542;2023-02-16T06:43:18;6.00;99.90
57108;DHT22;42987;52.916;6.542;2023-02-16T06:45:43;6.00;99.90
57108;DHT22;42987;52.916;6.542;2023-02-16T06:48:09;6.00;99.90
57108;DHT22;42987;52.916;6.542;2023-02-16T06:50:35;6.00;99.90
57108;DHT22;42987;52.916;6.542;2023-02-16T06:53:01;6.00;99.90
57108;DHT22;42987;52.916;6.542;2023-02-16T06:55:26;6.00;99.90
57108;DHT22;42987;52.916;6.542;2023-02-16T06:57:53;6.00;99.90
57108;DHT22;42987;52.916;6.542;2023-02-16T07:00:19;6.00;99.90
57108;DHT22;42987;52.916;6.542;2023-02-16T07:02:44;6.00;99.90
57108;DHT22;42987;52.916;6.542;2023-02-16T07:05:11;6.10;99.90
57108;DHT22;42987;52.916;6.542;2023-02-16T07:07:37;6.10;99.90
57108;DHT22;42987;52.916;6.542;2023-02-16T07:10:03;6.00;99.90
57108;DHT22;42987;52.916;6.542;2023-02-16T07:12:29;6.10;99.90
57108;DHT22;42987;52.916;6.542;2023-02-16T07:14:57;6.10;99.90
57108;DHT22;42987;52.916;6.542;2023-02-16T07:17:23;6.10;99.90
57108;DHT22;42987;52.916;6.542;2023-02-16T07:19:49;6.10;99.90
57108;DHT22;42987;52.916;6.542;2023-02-16T07:22:15;6.10;99.90
57108;DHT22;42987;52.916;6.542;2023-02-16T07:24:42;6.20;99.90
57108;DHT22;42987;52.916;6.542;2023-02-16T07:27:08;6.20;99.90
57108;DHT22;42987;52.916;6.542;2023-02-16T07:29:34;6.20;99.90
57108;DHT22;42987;52.916;6.542;2023-02-16T07:32:01;6.20;99.90
57108;DHT22;42987;52.916;6.542;2023-02-16T07:34:27;6.20;99.90
57108;DHT22;42987;52.916;6.542;2023-02-16T07:36:52;6.30;99.90
57108;DHT22;42987;52.916;6.542;2023-02-16T07:39:18;6.30;99.90
57108;DHT22;42987;52.916;6.542;2023-02-16T07:41:44;6.30;99.90
57108;DHT22;42987;52.916;6.542;2023-02-16T07:44:13;6.40;99.90
57108;DHT22;42987;52.916;6.542;2023-02-16T07:46:38;6.40;99.90
57108;DHT22;42987;52.916;6.542;2023-02-16T07:49:04;6.40;99.90
57108;DHT22;42987;52.916;6.542;2023-02-16T07:51:33;6.40;99.90
57108;DHT22;42987;52.916;6.542;2023-02-16T07:53:59;6.50;99.90
57108;DHT22;42987;52.916;6.542;2023-02-16T07:56:28;6.50;99.90
57108;DHT22;42987;52.916;6.542;2023-02-16T07:58:55;6.50;99.90
57108;DHT22;42987;52.916;6.542;2023-02-16T08:01:22;6.50;99.90
57108;DHT22;42987;52.916;6.542;2023-02-16T08:03:48;6.60;99.90
57108;DHT22;42987;52.916;6.542;2023-02-16T08:06:14;6.60;99.90
57108;DHT22;42987;52.916;6.542;2023-02-16T08:08:46;6.60;99.90
57108;DHT22;42987;52.916;6.542;2023-02-16T08:11:15;6.60;99.90
57108;DHT22;42987;52.916;6.542;2023-02-16T08:13:41;6.60;99.90
57108;DHT22;42987;52.916;6.542;2023-02-16T08:16:12;6.60;99.90
57108;DHT22;42987;52.916;6.542;2023-02-16T08:18:38;6.60;99.90
57108;DHT22;42987;52.916;6.542;2023-02-16T08:21:14;6.60;99.90
57108;DHT22;42987;52.916;6.542;2023-02-16T08:23:46;6.60;99.90
57108;DHT22;42987;52.916;6.542;2023-02-16T08:26:14;6.60;99.90
57108;DHT22;42987;52.916;6.542;2023-02-16T08:28:42;6.60;99.90
57108;DHT22;42987;52.916;6.542;2023-02-16T08:31:16;6.60;99.90
57108;DHT22;42987;52.916;6.542;2023-02-16T08:33:44;6.60;99.90
57108;DHT22;42987;52.916;6.542;2023-02-16T08:38:43;6.60;99.90
57108;DHT22;42987;52.916;6.542;2023-02-16T08:41:09;6.60;99.90
57108;DHT22;42987;52.916;6.542;2023-02-16T08:43:35;6.60;99.90
57108;DHT22;42987;52.916;6.542;2023-02-16T08:46:00;6.60;99.90
57108;DHT22;42987;52.916;6.542;2023-02-16T08:48:26;6.60;99.90
57108;DHT22;42987;52.916;6.542;2023-02-16T08:50:53;6.60;99.90
57108;DHT22;42987;52.916;6.542;2023-02-16T08:53:20;6.50;99.90
57108;DHT22;42987;52.916;6.542;2023-02-16T08:55:52;6.60;99.90
57108;DHT22;42987;52.916;6.542;2023-02-16T08:58:18;6.70;99.90
57108;DHT22;42987;52.916;6.542;2023-02-16T09:00:44;6.70;99.90
57108;DHT22;42987;52.916;6.542;2023-02-16T09:03:11;6.70;99.90
57108;DHT22;42987;52.916;6.542;2023-02-16T09:05:38;6.70;99.90
57108;DHT22;42987;52.916;6.542;2023-02-16T09:08:04;6.70;99.90
57108;DHT22;42987;52.916;6.542;2023-02-16T09:10:31;6.80;99.90
57108;DHT22;42987;52.916;6.542;2023-02-16T09:12:57;6.80;99.90
57108;DHT22;42987;52.916;6.542;2023-02-16T09:15:23;6.80;99.90
57108;DHT22;42987;52.916;6.542;2023-02-16T09:17:49;6.80;99.90
57108;DHT22;42987;52.916;6.542;2023-02-16T09:20:15;6.80;99.90
57108;DHT22;42987;52.916;6.542;2023-02-16T09:22:43;6.80;99.90
57108;DHT22;42987;52.916;6.542;2023-02-16T09:25:11;6.80;99.90
57108;DHT22;42987;52.916;6.542;2023-02-16T09:27:38;6.80;99.90
57108;DHT22;42987;52.916;6.542;2023-02-16T09:30:04;6.90;99.90
57108;DHT22;42987;52.916;6.542;2023-02-16T09:32:30;6.90;99.90
57108;DHT22;42987;52.916;6.542;2023-02-16T09:34:56;6.90;99.90
57108;DHT22;42987;52.916;6.542;2023-02-16T09:37:22;6.90;99.90
57108;DHT22;42987;52.916;6.542;2023-02-16T09:39:48;7.00;99.90
57108;DHT22;42987;52.916;6.542;2023-02-16T09:47:38;7.00;99.90
57108;DHT22;42987;52.916;6.542;2023-02-16T09:50:20;7.10;99.90
57108;DHT22;42987;52.916;6.542;2023-02-16T09:52:57;7.10;99.90
57108;DHT22;42987;52.916;6.542;2023-02-16T09:55:31;7.10;99.90
57108;DHT22;42987;52.916;6.542;2023-02-16T09:58:16;7.10;99.90
57108;DHT22;42987;52.916;6.542;2023-02-16T10:00:50;7.10;99.90
57108;DHT22;42987;52.916;6.542;2023-02-16T10:08:48;7.10;99.90
57108;DHT22;42987;52.916;6.542;2023-02-16T10:16:45;7.30;99.90
57108;DHT22;42987;52.916;6.542;2023-02-16T10:19:51;7.30;99.90
57108;DHT22;42987;52.916;6.542;2023-02-16T10:25:33;7.40;99.90
57108;DHT22;42987;52.916;6.542;2023-02-16T10:28:17;7.40;99.90
57108;DHT22;42987;52.916;6.542;2023-02-16T10:31:02;7.50;99.90
57108;DHT22;42987;52.916;6.542;2023-02-16T10:33:43;7.50;99.90
57108;DHT22;42987;52.916;6.542;2023-02-16T10:39:42;7.50;99.90
57108;DHT22;42987;52.916;6.542;2023-02-16T10:42:36;7.60;99.90
57108;DHT22;42987;52.916;6.542;2023-02-16T10:47:45;7.60;99.90
57108;DHT22;42987;52.916;6.542;2023-02-16T10:50:25;7.60;99.90
57108;DHT22;42987;52.916;6.542;2023-02-16T10:52:57;7.60;99.90
57108;DHT22;42987;52.916;6.542;2023-02-16T10:55:23;7.60;99.90
57108;DHT22;42987;52.916;6.542;2023-02-16T10:58:00;7.60;99.90
57108;DHT22;42987;52.916;6.542;2023-02-16T11:03:17;7.60;99.90
57108;DHT22;42987;52.916;6.542;2023-02-16T11:05:45;7.50;99.90
57108;DHT22;42987;52.916;6.542;2023-02-16T11:08:11;7.50;99.90
57108;DHT22;42987;52.916;6.542;2023-02-16T11:10:50;7.60;99.90
57108;DHT22;42987;52.916;6.542;2023-02-16T11:13:27;7.60;99.90
57108;DHT22;42987;52.916;6.542;2023-02-16T11:15:59;7.70;99.90
57108;DHT22;42987;52.916;6.542;2023-02-16T11:20:56;7.80;99.90
57108;DHT22;42987;52.916;6.542;2023-02-16T11:23:33;7.80;99.90
57108;DHT22;42987;52.916;6.542;2023-02-16T11:26:05;7.80;99.90
57108;DHT22;42987;52.916;6.542;2023-02-16T11:28:36;7.90;99.90
57108;DHT22;42987;52.916;6.542;2023-02-16T11:31:16;7.90;99.90
57108;DHT22;42987;52.916;6.542;2023-02-16T11:34:00;7.90;99.90
57108;DHT22;42987;52.916;6.542;2023-02-16T11:36:36;7.90;99.90
57108;DHT22;42987;52.916;6.542;2023-02-16T11:39:28;7.90;99.90
57108;DHT22;42987;52.916;6.542;2023-02-16T11:42:00;7.90;99.90
57108;DHT22;42987;52.916;6.542;2023-02-16T11:47:01;8.00;99.90
57108;DHT22;42987;52.916;6.542;2023-02-16T11:49:37;8.00;99.90
57108;DHT22;42987;52.916;6.542;2023-02-16T11:52:25;8.00;99.90
57108;DHT22;42987;52.916;6.542;2023-02-16T11:54:58;8.00;99.90
57108;DHT22;42987;52.916;6.542;2023-02-16T11:57:30;8.00;99.90
57108;DHT22;42987;52.916;6.542;2023-02-16T11:59:57;8.10;99.90
57108;DHT22;42987;52.916;6.542;2023-02-16T12:02:36;8.10;99.90
57108;DHT22;42987;52.916;6.542;2023-02-16T12:05:17;8.10;99.90
57108;DHT22;42987;52.916;6.542;2023-02-16T12:10:30;8.20;99.90
57108;DHT22;42987;52.916;6.542;2023-02-16T12:13:04;8.30;99.90
57108;DHT22;42987;52.916;6.542;2023-02-16T12:24:05;8.40;99.90
57108;DHT22;42987;52.916;6.542;2023-02-16T12:26:42;8.50;99.90
57108;DHT22;42987;52.916;6.542;2023-02-16T12:37:42;9.00;99.90
57108;DHT22;42987;52.916;6.542;2023-02-16T12:45:46;9.20;99.90
57108;DHT22;42987;52.916;6.542;2023-02-16T12:48:36;9.20;99.90
57108;DHT22;42987;52.916;6.542;2023-02-16T12:51:21;9.40;99.90
57108;DHT22;42987;52.916;6.542;2023-02-16T12:56:35;9.50;99.90
57108;DHT22;42987;52.916;6.542;2023-02-16T12:59:19;9.50;99.90
57108;DHT22;42987;52.916;6.542;2023-02-16T13:01:49;9.60;99.90
57108;DHT22;42987;52.916;6.542;2023-02-16T13:07:31;9.70;99.90
57108;DHT22;42987;52.916;6.542;2023-02-16T13:12:56;9.80;99.90
57108;DHT22;42987;52.916;6.542;2023-02-16T13:15:35;9.90;99.90
57108;DHT22;42987;52.916;6.542;2023-02-16T13:18:30;9.90;99.90
57108;DHT22;42987;52.916;6.542;2023-02-16T13:21:03;9.90;99.90
57108;DHT22;42987;52.916;6.542;2023-02-16T13:32:01;10.10;99.90
57108;DHT22;42987;52.916;6.542;2023-02-16T13:37:54;10.10;99.90
57108;DHT22;42987;52.916;6.542;2023-02-16T13:43:18;10.20;99.90
57108;DHT22;42987;52.916;6.542;2023-02-16T13:45:48;10.30;99.90
57108;DHT22;42987;52.916;6.542;2023-02-16T13:48:27;10.30;99.90
57108;DHT22;42987;52.916;6.542;2023-02-16T13:51:00;10.40;99.90
57108;DHT22;42987;52.916;6.542;2023-02-16T13:53:38;10.40;99.90
57108;DHT22;42987;52.916;6.542;2023-02-16T13:58:47;10.30;99.90
57108;DHT22;42987;52.916;6.542;2023-02-16T14:01:36;10.20;99.90
57108;DHT22;42987;52.916;6.542;2023-02-16T14:06:50;10.10;99.90
57108;DHT22;42987;52.916;6.542;2023-02-16T14:12:42;10.10;99.90
57108;DHT22;42987;52.916;6.542;2023-02-16T14:15:15;10.10;99.90
57108;DHT22;42987;52.916;6.542;2023-02-16T14:17:44;10.10;99.90
57108;DHT22;42987;52.916;6.542;2023-02-16T14:22:54;10.10;99.90
57108;DHT22;42987;52.916;6.542;2023-02-16T14:27:50;10.10;99.90
57108;DHT22;42987;52.916;6.542;2023-02-16T14:35:44;10.10;99.90
57108;DHT22;42987;52.916;6.542;2023-02-16T14:41:22;10.00;99.90
57108;DHT22;42987;52.916;6.542;2023-02-16T14:44:09;10.00;99.90
57108;DHT22;42987;52.916;6.542;2023-02-16T14:46:47;10.00;99.90
57108;DHT22;42987;52.916;6.542;2023-02-16T15:00:49;9.90;99.90
57108;DHT22;42987;52.916;6.542;2023-02-16T15:03:18;9.80;99.90
57108;DHT22;42987;52.916;6.542;2023-02-16T15:06:02;9.80;99.90
57108;DHT22;42987;52.916;6.542;2023-02-16T15:08:35;9.80;99.90
57108;DHT22;42987;52.916;6.542;2023-02-16T15:11:20;9.80;99.90
57108;DHT22;42987;52.916;6.542;2023-02-16T15:13:47;9.80;99.90
57108;DHT22;42987;52.916;6.542;2023-02-16T15:16:19;9.70;99.90
57108;DHT22;42987;52.916;6.542;2023-02-16T15:18:48;9.70;99.90
57108;DHT22;42987;52.916;6.542;2023-02-16T15:21:41;9.70;99.90
57108;DHT22;42987;52.916;6.542;2023-02-16T15:24:20;9.70;99.90
57108;DHT22;42987;52.916;6.542;2023-02-16T15:26:53;9.70;99.90
57108;DHT22;42987;52.916;6.542;2023-02-16T15:29:22;9.60;99.90
57108;DHT22;42987;52.916;6.542;2023-02-16T15:31:51;9.50;99.90
57108;DHT22;42987;52.916;6.542;2023-02-16T15:34:32;9.50;99.90
57108;DHT22;42987;52.916;6.542;2023-02-16T15:37:00;9.40;99.90
57108;DHT22;42987;52.916;6.542;2023-02-16T15:39:32;9.40;99.90
57108;DHT22;42987;52.916;6.542;2023-02-16T15:42:20;9.30;99.90
57108;DHT22;42987;52.916;6.542;2023-02-16T15:44:46;9.30;99.90
57108;DHT22;42987;52.916;6.542;2023-02-16T15:47:15;9.30;99.90
57108;DHT22;42987;52.916;6.542;2023-02-16T15:49:42;9.20;99.90
57108;DHT22;42987;52.916;6.542;2023-02-16T15:52:21;9.10;99.90
57108;DHT22;42987;52.916;6.542;2023-02-16T15:54:52;9.10;99.90
57108;DHT22;42987;52.916;6.542;2023-02-16T15:57:30;9.10;99.90
57108;DHT22;42987;52.916;6.542;2023-02-16T16:00:03;9.10;99.90
57108;DHT22;42987;52.916;6.542;2023-02-16T16:02:35;9.00;99.90
57108;DHT22;42987;52.916;6.542;2023-02-16T16:05:05;9.00;99.90
57108;DHT22;42987;52.916;6.542;2023-02-16T16:07:39;9.00;99.90
57108;DHT22;42987;52.916;6.542;2023-02-16T16:10:32;9.00;99.90
57108;DHT22;42987;52.916;6.542;2023-02-16T16:13:02;9.00;99.90
57108;DHT22;42987;52.916;6.542;2023-02-16T16:15:34;9.00;99.90
57108;DHT22;42987;52.916;6.542;2023-02-16T16:18:01;9.00;99.90
57108;DHT22;42987;52.916;6.542;2023-02-16T16:20:37;9.00;99.90
57108;DHT22;42987;52.916;6.542;2023-02-16T16:25:43;9.10;99.90
57108;DHT22;42987;52.916;6.542;2023-02-16T16:31:17;9.10;99.90
57108;DHT22;42987;52.916;6.542;2023-02-16T16:34:09;9.10;99.90
57108;DHT22;42987;52.916;6.542;2023-02-16T16:36:36;9.10;99.90
57108;DHT22;42987;52.916;6.542;2023-02-16T16:39:18;9.10;99.90
57108;DHT22;42987;52.916;6.542;2023-02-16T16:42:31;9.10;99.90
57108;DHT22;42987;52.916;6.542;2023-02-16T16:44:33;9.10;99.90
57108;DHT22;42987;52.916;6.542;2023-02-16T16:47:37;9.10;99.90
57108;DHT22;42987;52.916;6.542;2023-02-16T16:52:42;9.10;99.90
57108;DHT22;42987;52.916;6.542;2023-02-16T16:57:45;9.10;99.90
57108;DHT22;42987;52.916;6.542;2023-02-16T17:00:11;9.10;99.90
57108;DHT22;42987;52.916;6.542;2023-02-16T17:02:37;9.10;99.90
57108;DHT22;42987;52.916;6.542;2023-02-16T17:05:04;9.10;99.90
57108;DHT22;42987;52.916;6.542;2023-02-16T17:07:30;9.10;99.90
57108;DHT22;42987;52.916;6.542;2023-02-16T17:09:58;9.00;99.90
57108;DHT22;42987;52.916;6.542;2023-02-16T17:12:25;9.00;99.90
57108;DHT22;42987;52.916;6.542;2023-02-16T17:14:52;9.00;99.90
57108;DHT22;42987;52.916;6.542;2023-02-16T17:17:18;9.00;99.90
57108;DHT22;42987;52.916;6.542;2023-02-16T17:19:44;9.00;99.90
57108;DHT22;42987;52.916;6.542;2023-02-16T17:22:18;8.90;99.90
57108;DHT22;42987;52.916;6.542;2023-02-16T17:24:44;8.90;99.90
57108;DHT22;42987;52.916;6.542;2023-02-16T17:27:10;8.90;99.90
57108;DHT22;42987;52.916;6.542;2023-02-16T17:29:36;8.80;99.90
57108;DHT22;42987;52.916;6.542;2023-02-16T17:32:04;8.80;99.90
57108;DHT22;42987;52.916;6.542;2023-02-16T17:34:30;8.80;99.90
57108;DHT22;42987;52.916;6.542;2023-02-16T17:36:57;8.80;99.90
57108;DHT22;42987;52.916;6.542;2023-02-16T17:39:30;8.80;99.90
57108;DHT22;42987;52.916;6.542;2023-02-16T17:41:56;8.70;99.90
57108;DHT22;42987;52.916;6.542;2023-02-16T17:44:22;8.70;99.90
57108;DHT22;42987;52.916;6.542;2023-02-16T17:46:48;8.70;99.90
57108;DHT22;42987;52.916;6.542;2023-02-16T17:49:14;8.70;99.90
57108;DHT22;42987;52.916;6.542;2023-02-16T17:51:40;8.70;99.90
57108;DHT22;42987;52.916;6.542;2023-02-16T17:54:06;8.70;99.90
57108;DHT22;42987;52.916;6.542;2023-02-16T17:56:36;8.70;99.90
57108;DHT22;42987;52.916;6.542;2023-02-16T17:59:08;8.70;99.90
57108;DHT22;42987;52.916;6.542;2023-02-16T18:01:34;8.70;99.90
57108;DHT22;42987;52.916;6.542;2023-02-16T18:04:02;8.70;99.90
57108;DHT22;42987;52.916;6.542;2023-02-16T18:06:28;8.70;99.90
57108;DHT22;42987;52.916;6.542;2023-02-16T18:08:55;8.70;99.90
57108;DHT22;42987;52.916;6.542;2023-02-16T18:11:21;8.70;99.90
57108;DHT22;42987;52.916;6.542;2023-02-16T18:13:46;8.70;99.90
57108;DHT22;42987;52.916;6.542;2023-02-16T18:16:14;8.70;99.90
57108;DHT22;42987;52.916;6.542;2023-02-16T18:18:43;8.70;99.90
57108;DHT22;42987;52.916;6.542;2023-02-16T18:21:10;8.70;99.90
57108;DHT22;42987;52.916;6.542;2023-02-16T18:23:36;8.70;99.90
57108;DHT22;42987;52.916;6.542;2023-02-16T18:26:03;8.70;99.90
57108;DHT22;42987;52.916;6.542;2023-02-16T18:28:31;8.70;99.90
57108;DHT22;42987;52.916;6.542;2023-02-16T18:30:58;8.70;99.90
57108;DHT22;42987;52.916;6.542;2023-02-16T18:33:27;8.70;99.90
57108;DHT22;42987;52.916;6.542;2023-02-16T18:35:54;8.70;99.90
57108;DHT22;42987;52.916;6.542;2023-02-16T18:38:21;8.80;99.90
57108;DHT22;42987;52.916;6.542;2023-02-16T18:40:48;8.80;99.90
57108;DHT22;42987;52.916;6.542;2023-02-16T18:43:14;8.80;99.90
57108;DHT22;42987;52.916;6.542;2023-02-16T18:45:40;8.80;99.90
57108;DHT22;42987;52.916;6.542;2023-02-16T18:48:06;8.70;99.90
57108;DHT22;42987;52.916;6.542;2023-02-16T18:50:33;8.80;99.90
57108;DHT22;42987;52.916;6.542;2023-02-16T18:52:59;8.80;99.90
57108;DHT22;42987;52.916;6.542;2023-02-16T18:55:25;8.80;99.90
57108;DHT22;42987;52.916;6.542;2023-02-16T18:57:58;8.80;99.90
57108;DHT22;42987;52.916;6.542;2023-02-16T19:00:27;8.80;99.90
57108;DHT22;42987;52.916;6.542;2023-02-16T19:02:53;8.90;99.90
57108;DHT22;42987;52.916;6.542;2023-02-16T19:05:23;8.90;99.90